createdAt,value
2022-10-20T00:01:36.292Z,13.98
2022-10-20T00:04:02.816Z,15.07
2022-10-20T00:06:31.036Z,13.48
2022-10-20T00:08:58.252Z,13.20
2022-10-20T00:11:25.544Z,15.68
2022-10-20T00:13:53.073Z,11.43
2022-10-20T00:16:20.113Z,15.00
2022-10-20T00:18:46.445Z,11.93
2022-10-20T00:21:16.924Z,11.82
2022-10-20T00:23:43.210Z,17.25
2022-10-20T00:26:14.146Z,12.90
2022-10-20T00:28:40.465Z,14.27
2022-10-20T00:31:07.270Z,12.55
2022-10-20T00:33:34.019Z,15.30
2022-10-20T00:36:01.048Z,15.48
2022-10-20T00:38:27.417Z,14.93
2022-10-20T00:40:53.701Z,11.98
2022-10-20T00:43:20.088Z,20.45
2022-10-20T00:45:50.795Z,12.15
2022-10-20T00:48:19.741Z,16.00
2022-10-20T00:50:50.571Z,12.13
2022-10-20T00:53:17.416Z,14.23
2022-10-20T00:55:46.114Z,16.85
2022-10-20T00:58:12.474Z,11.00
2022-10-20T01:00:40.006Z,14.25
2022-10-20T01:03:07.312Z,15.48
2022-10-20T01:05:33.619Z,12.13
2022-10-20T01:08:01.542Z,13.38
2022-10-20T01:10:32.136Z,9.85
2022-10-20T01:13:04.724Z,14.25
2022-10-20T01:15:47.252Z,13.93
2022-10-20T01:18:22.829Z,13.52
2022-10-20T01:21:16.077Z,12.93
2022-10-20T01:23:51.483Z,10.20
2022-10-20T01:26:23.736Z,16.23
2022-10-20T01:28:54.824Z,13.68
2022-10-20T01:31:21.065Z,18.23
2022-10-20T01:33:55.767Z,16.50
2022-10-20T01:36:32.202Z,10.52
2022-10-20T01:39:04.500Z,13.85
2022-10-20T01:41:35.774Z,14.32
2022-10-20T01:44:03.194Z,12.10
2022-10-20T01:46:30.234Z,14.70
2022-10-20T01:48:57.262Z,12.88
2022-10-20T01:51:23.572Z,10.23
2022-10-20T01:53:49.829Z,9.77
2022-10-20T01:56:19.960Z,14.02
2022-10-20T01:59:01.503Z,13.05
2022-10-20T02:01:46.579Z,14.40
2022-10-20T02:04:13.867Z,13.00
2022-10-20T02:06:49.344Z,13.85
2022-10-20T02:09:17.815Z,11.85
2022-10-20T02:11:56.165Z,12.15
2022-10-20T02:14:23.163Z,13.43
2022-10-20T02:16:51.458Z,13.88
2022-10-20T02:19:19.349Z,11.68
2022-10-20T02:21:46.284Z,13.57
2022-10-20T02:24:13.926Z,12.48
2022-10-20T02:26:40.431Z,14.25
2022-10-20T02:29:12.184Z,11.30
2022-10-20T02:31:38.665Z,11.18
2022-10-20T02:34:04.992Z,11.48
2022-10-20T02:36:31.294Z,13.00
2022-10-20T02:38:57.613Z,11.95
2022-10-20T02:41:23.921Z,10.52
2022-10-20T02:43:50.182Z,10.82
2022-10-20T02:46:17.204Z,13.25
2022-10-20T02:48:43.772Z,15.23
2022-10-20T02:51:10.067Z,13.70
2022-10-20T02:53:36.358Z,13.20
2022-10-20T02:56:02.712Z,13.45
2022-10-20T02:58:28.989Z,15.88
2022-10-20T03:00:55.257Z,11.10
2022-10-20T03:03:21.564Z,11.60
2022-10-20T03:05:47.863Z,16.48
2022-10-20T03:08:14.726Z,14.75
2022-10-20T03:10:41.588Z,12.95
2022-10-20T03:13:08.189Z,13.68
2022-10-20T03:15:34.685Z,12.52
2022-10-20T03:18:00.996Z,12.77
2022-10-20T03:20:27.248Z,14.93
2022-10-20T03:22:53.556Z,15.80
2022-10-20T03:25:19.852Z,16.85
2022-10-20T03:27:51.301Z,10.15
2022-10-20T03:30:17.628Z,17.05
2022-10-20T03:32:44.100Z,10.80
2022-10-20T03:35:10.368Z,11.65
2022-10-20T03:37:36.670Z,14.02
2022-10-20T03:40:03.013Z,10.77
2022-10-20T03:42:29.285Z,14.20
2022-10-20T03:44:55.575Z,13.68
2022-10-20T03:47:21.859Z,15.52
2022-10-20T03:49:48.129Z,15.25
2022-10-20T03:52:14.519Z,12.98
2022-10-20T03:54:40.922Z,17.27
2022-10-20T03:57:08.044Z,15.73
2022-10-20T03:59:34.467Z,11.77
2022-10-20T04:02:00.883Z,15.05
2022-10-20T04:04:27.244Z,10.77
2022-10-20T04:06:53.527Z,12.00
2022-10-20T04:09:19.961Z,12.93
2022-10-20T04:11:46.296Z,13.30
2022-10-20T04:14:12.645Z,18.25
2022-10-20T04:16:38.978Z,14.77
2022-10-20T04:19:05.258Z,12.32
2022-10-20T04:21:31.621Z,15.02
2022-10-20T04:23:57.892Z,12.57
2022-10-20T04:26:24.160Z,13.98
2022-10-20T04:28:50.435Z,11.57
2022-10-20T04:31:16.726Z,12.48
2022-10-20T04:33:43.048Z,12.00
2022-10-20T04:36:11.961Z,12.55
2022-10-20T04:38:38.252Z,10.48
2022-10-20T04:41:04.832Z,11.68
2022-10-20T04:43:32.042Z,13.45
2022-10-20T04:46:08.122Z,14.32
2022-10-20T04:48:35.631Z,16.85
2022-10-20T04:51:03.349Z,13.43
2022-10-20T04:53:29.664Z,17.48
2022-10-20T04:55:59.409Z,15.55
2022-10-20T04:58:26.344Z,16.60
2022-10-20T05:00:52.688Z,14.43
2022-10-20T05:03:19.147Z,14.23
2022-10-20T05:05:48.521Z,15.48
2022-10-20T05:08:14.889Z,17.58
2022-10-20T05:10:41.217Z,16.42
2022-10-20T05:13:07.496Z,14.63
2022-10-20T05:15:33.771Z,15.68
2022-10-20T05:18:00.100Z,19.98
2022-10-20T05:20:26.397Z,16.92
2022-10-20T05:22:52.670Z,14.50
2022-10-20T05:25:35.594Z,17.73
2022-10-20T05:28:03.077Z,16.15
2022-10-20T05:30:29.423Z,16.63
2022-10-20T05:32:55.726Z,18.05
2022-10-20T05:35:21.999Z,18.08
2022-10-20T05:37:48.270Z,18.15
2022-10-20T05:40:14.554Z,18.23
2022-10-20T05:42:40.825Z,18.95
2022-10-20T05:45:07.545Z,18.92
2022-10-20T05:47:33.898Z,17.92
2022-10-20T05:50:00.168Z,19.73
2022-10-20T05:52:26.507Z,16.85
2022-10-20T05:54:53.041Z,15.85
2022-10-20T05:57:19.328Z,18.52
2022-10-20T05:59:45.842Z,16.60
2022-10-20T06:02:12.540Z,19.73
2022-10-20T06:04:38.835Z,20.30
2022-10-20T06:07:05.807Z,19.13
2022-10-20T06:09:32.527Z,18.33
2022-10-20T06:11:59.982Z,16.55
2022-10-20T06:14:26.321Z,21.33
2022-10-20T06:16:53.602Z,16.38
2022-10-20T06:19:20.241Z,18.13
2022-10-20T06:21:48.859Z,19.48
2022-10-20T06:24:17.662Z,17.83
2022-10-20T06:26:43.974Z,20.83
2022-10-20T06:29:12.030Z,21.33
2022-10-20T06:31:39.604Z,15.70
2022-10-20T06:34:06.953Z,16.33
2022-10-20T06:36:36.921Z,21.85
2022-10-20T06:39:04.510Z,19.27
2022-10-20T06:41:31.312Z,21.02
2022-10-20T06:43:59.383Z,21.88
2022-10-20T06:46:30.347Z,18.27
2022-10-20T06:48:58.771Z,21.25
2022-10-20T06:51:25.600Z,18.13
2022-10-20T06:53:52.281Z,22.50
2022-10-20T06:56:19.820Z,19.60
2022-10-20T06:58:47.310Z,22.88
2022-10-20T07:01:23.134Z,17.83
2022-10-20T07:03:50.398Z,21.40
2022-10-20T07:06:21.085Z,19.92
2022-10-20T07:08:47.771Z,23.67
2022-10-20T07:11:16.747Z,23.98
2022-10-20T07:13:43.317Z,21.98
2022-10-20T07:16:12.034Z,19.45
2022-10-20T07:18:38.410Z,27.50
2022-10-20T07:21:05.798Z,25.92
2022-10-20T07:23:35.370Z,23.45
2022-10-20T07:26:06.317Z,18.90
2022-10-20T07:28:32.976Z,20.50
2022-10-20T07:31:06.364Z,20.02
2022-10-20T07:33:32.894Z,22.70
2022-10-20T07:35:59.188Z,20.42
2022-10-20T07:38:25.454Z,19.90
2022-10-20T07:40:52.571Z,22.02
2022-10-20T07:43:19.093Z,23.55
2022-10-20T07:45:45.504Z,23.45
2022-10-20T07:48:11.786Z,27.38
2022-10-20T07:50:38.308Z,27.65
2022-10-20T07:53:06.234Z,21.55
2022-10-20T07:55:38.643Z,23.30
2022-10-20T07:58:05.687Z,22.85
2022-10-20T08:00:32.097Z,23.10
2022-10-20T08:02:58.445Z,26.35
2022-10-20T08:05:24.774Z,24.65
2022-10-20T08:07:51.094Z,30.15
2022-10-20T08:10:17.508Z,26.55
2022-10-20T08:12:43.800Z,24.77
2022-10-20T08:15:10.149Z,26.58
2022-10-20T08:17:36.809Z,24.30
2022-10-20T08:22:43.778Z,28.33
2022-10-20T08:25:13.365Z,27.75
2022-10-20T08:27:39.659Z,30.90
2022-10-20T08:30:22.765Z,24.67
2022-10-20T08:32:53.164Z,25.55
2022-10-20T08:35:20.020Z,27.10
2022-10-20T08:37:46.388Z,27.63
2022-10-20T08:40:32.978Z,31.45
2022-10-20T08:42:59.423Z,30.38
2022-10-20T08:45:27.511Z,30.30
2022-10-20T08:47:58.591Z,30.17
2022-10-20T08:50:27.701Z,28.30
2022-10-20T08:52:56.165Z,29.55
2022-10-20T08:55:26.178Z,28.83
2022-10-20T08:57:53.184Z,27.42
2022-10-20T09:00:21.402Z,29.98
2022-10-20T09:02:48.774Z,31.58
2022-10-20T09:05:19.207Z,25.63
2022-10-20T09:07:48.281Z,30.95
2022-10-20T09:10:14.519Z,24.65
2022-10-20T09:12:41.835Z,29.23
2022-10-20T09:15:11.410Z,33.22
2022-10-20T09:17:39.140Z,28.88
2022-10-20T09:20:05.979Z,28.95
2022-10-20T09:22:35.987Z,29.05
2022-10-20T09:25:03.297Z,27.05
2022-10-20T09:27:29.549Z,32.83
2022-10-20T09:29:55.841Z,27.67
2022-10-20T09:32:46.458Z,34.65
2022-10-20T09:35:20.012Z,30.42
2022-10-20T09:37:50.959Z,29.63
2022-10-20T09:40:18.133Z,29.13
2022-10-20T09:42:58.897Z,30.92
2022-10-20T09:45:28.724Z,32.10
2022-10-20T09:48:13.817Z,31.95
2022-10-20T09:50:40.541Z,33.70
2022-10-20T09:53:15.445Z,32.72
2022-10-20T09:55:46.093Z,35.00
2022-10-20T09:58:19.240Z,33.88
2022-10-20T10:00:47.336Z,37.27
2022-10-20T10:03:21.354Z,33.97
2022-10-20T10:08:15.062Z,31.42
2022-10-20T10:10:43.366Z,31.42
2022-10-20T10:13:23.924Z,33.60
2022-10-20T10:15:58.971Z,34.03
2022-10-20T10:18:25.318Z,36.38
2022-10-20T10:21:02.733Z,35.92
2022-10-20T10:23:30.323Z,30.55
2022-10-20T10:26:00.580Z,31.52
2022-10-20T10:28:39.507Z,31.55
2022-10-20T10:31:08.961Z,28.52
2022-10-20T10:33:35.302Z,31.73
2022-10-20T10:36:03.046Z,29.00
2022-10-20T10:38:29.663Z,31.75
2022-10-20T10:41:07.592Z,30.50
2022-10-20T10:43:54.222Z,29.55
2022-10-20T10:46:25.972Z,30.20
2022-10-20T10:49:07.726Z,33.63
2022-10-20T10:51:43.099Z,33.78
2022-10-20T10:54:19.609Z,33.42
2022-10-20T10:56:47.456Z,33.88
2022-10-20T10:59:27.498Z,32.53
2022-10-20T11:02:12.504Z,31.73
2022-10-20T11:04:47.984Z,29.80
2022-10-20T11:07:24.904Z,30.00
2022-10-20T11:09:54.265Z,27.98
2022-10-20T11:12:41.173Z,30.27
2022-10-20T11:15:26.135Z,30.27
2022-10-20T11:17:58.494Z,26.88
2022-10-20T11:20:38.525Z,28.85
2022-10-20T11:23:04.824Z,34.20
2022-10-20T11:25:40.327Z,28.73
2022-10-20T11:28:16.453Z,27.40
2022-10-20T11:30:42.741Z,29.67
2022-10-20T11:33:15.401Z,32.40
2022-10-20T11:35:54.397Z,29.13
2022-10-20T11:38:20.679Z,32.05
2022-10-20T11:40:52.337Z,31.90
2022-10-20T11:43:30.857Z,29.25
2022-10-20T11:46:03.730Z,33.50
2022-10-20T11:48:29.988Z,32.95
2022-10-20T11:51:28.757Z,30.85
2022-10-20T11:53:58.036Z,31.95
2022-10-20T11:56:43.264Z,30.52
2022-10-20T11:59:12.708Z,34.85
2022-10-20T12:01:43.817Z,28.98
2022-10-20T12:04:22.909Z,31.38
2022-10-20T12:07:07.598Z,33.15
2022-10-20T12:09:33.857Z,32.03
2022-10-20T12:12:19.565Z,31.42
2022-10-20T12:14:57.855Z,37.00
2022-10-20T12:17:29.623Z,30.88
2022-10-20T12:20:14.607Z,30.58
2022-10-20T12:22:41.750Z,31.48
2022-10-20T12:25:07.997Z,28.50
2022-10-20T12:27:34.404Z,27.23
2022-10-20T12:30:01.743Z,29.27
2022-10-20T12:32:28.012Z,29.27
2022-10-20T12:34:55.421Z,31.02
2022-10-20T12:37:26.841Z,30.75
2022-10-20T12:39:54.003Z,28.13
2022-10-20T12:42:28.085Z,33.75
2022-10-20T12:47:21.391Z,29.55
2022-10-20T12:49:59.931Z,33.90
2022-10-20T12:52:33.895Z,33.72
2022-10-20T12:55:04.654Z,28.05
2022-10-20T12:57:41.869Z,32.90
2022-10-20T13:00:08.523Z,34.08
2022-10-20T13:02:53.483Z,31.83
2022-10-20T13:05:19.749Z,32.15
2022-10-20T13:07:46.002Z,29.70
2022-10-20T13:10:28.996Z,30.83
2022-10-20T13:13:01.480Z,30.75
2022-10-20T13:15:32.629Z,32.17
2022-10-20T13:18:00.945Z,32.28
2022-10-20T13:20:36.714Z,33.40
2022-10-20T13:23:03.340Z,30.35
2022-10-20T13:25:35.318Z,31.13
2022-10-20T13:28:05.960Z,28.95
2022-10-20T13:30:33.353Z,33.97
2022-10-20T13:36:05.745Z,34.58
2022-10-20T13:38:40.689Z,32.30
2022-10-20T13:41:33.241Z,34.03
2022-10-20T13:44:04.555Z,35.10
2022-10-20T13:46:37.629Z,35.22
2022-10-20T13:49:07.036Z,37.42
2022-10-20T13:51:37.537Z,34.42
2022-10-20T13:54:06.147Z,34.83
2022-10-20T13:56:42.233Z,32.10
2022-10-20T13:59:14.629Z,41.33
2022-10-20T14:01:45.810Z,37.03
2022-10-20T14:04:25.705Z,36.22
2022-10-20T14:06:52.516Z,37.05
2022-10-20T14:09:27.915Z,38.20
2022-10-20T14:11:55.336Z,32.13
2022-10-20T14:14:23.864Z,43.10
2022-10-20T14:16:52.056Z,38.70
2022-10-20T14:19:21.565Z,39.58
2022-10-20T14:21:51.460Z,39.35
2022-10-20T14:24:30.683Z,39.75
2022-10-20T14:29:27.226Z,38.63
2022-10-20T14:31:53.570Z,38.78
2022-10-20T14:34:22.229Z,40.00
2022-10-20T14:36:49.469Z,41.58
2022-10-20T14:39:21.961Z,38.80
2022-10-20T14:41:48.241Z,40.08
2022-10-20T14:44:30.176Z,41.67
2022-10-20T14:46:59.920Z,38.80
2022-10-20T14:49:32.052Z,42.83
2022-10-20T14:51:59.656Z,43.00
2022-10-20T14:54:39.335Z,39.38
2022-10-20T14:57:08.764Z,38.58
2022-10-20T14:59:59.089Z,42.90
2022-10-20T15:02:27.288Z,44.92
2022-10-20T15:04:53.907Z,42.65
2022-10-20T15:07:34.893Z,44.95
2022-10-20T15:10:09.572Z,47.08
2022-10-20T15:12:36.164Z,43.45
2022-10-20T15:15:11.878Z,42.10
2022-10-20T15:17:45.748Z,42.70
2022-10-20T15:20:34.168Z,42.17
2022-10-20T15:23:00.548Z,42.30
2022-10-20T15:25:28.523Z,47.00
2022-10-20T15:27:57.919Z,42.13
2022-10-20T15:30:24.764Z,38.40
2022-10-20T15:32:51.272Z,48.95
2022-10-20T15:35:19.765Z,46.17
2022-10-20T15:37:48.862Z,51.15
2022-10-20T15:40:15.180Z,46.78
2022-10-20T15:42:41.553Z,50.40
2022-10-20T15:45:27.753Z,49.47
2022-10-20T15:47:54.034Z,48.28
2022-10-20T15:50:22.876Z,44.20
2022-10-20T15:52:51.158Z,42.17
2022-10-20T15:55:22.356Z,47.17
2022-10-20T15:57:49.802Z,53.13
2022-10-20T16:00:16.153Z,43.13
2022-10-20T16:02:42.442Z,45.38
2022-10-20T16:05:08.881Z,43.60
2022-10-20T16:07:35.452Z,48.80
2022-10-20T16:10:01.959Z,50.25
2022-10-20T16:12:28.303Z,51.50
2022-10-20T16:14:54.570Z,45.05
2022-10-20T16:17:20.829Z,46.22
2022-10-20T16:19:47.109Z,48.70
2022-10-20T16:22:13.435Z,52.30
2022-10-20T16:24:39.710Z,44.95
2022-10-20T16:27:06.318Z,53.50
2022-10-20T16:29:32.833Z,55.30
2022-10-20T16:31:59.521Z,53.67
2022-10-20T16:34:27.546Z,53.83
2022-10-20T16:36:53.848Z,56.97
2022-10-20T16:39:20.306Z,52.45
2022-10-20T16:41:46.941Z,60.30
2022-10-20T16:44:13.433Z,62.30
2022-10-20T16:46:39.757Z,53.72
2022-10-20T16:49:06.404Z,62.28
2022-10-20T16:51:32.673Z,58.00
2022-10-20T16:54:03.120Z,54.17
2022-10-20T16:56:30.091Z,55.67
2022-10-20T16:58:56.445Z,51.28
2022-10-20T17:01:23.087Z,51.85
2022-10-20T17:03:50.612Z,52.00
2022-10-20T17:06:18.329Z,53.63
2022-10-20T17:08:45.005Z,49.35
2022-10-20T17:11:13.176Z,50.45
2022-10-20T17:13:39.637Z,52.08
2022-10-20T17:16:13.445Z,52.03
2022-10-20T17:18:40.061Z,55.63
2022-10-20T17:21:06.834Z,53.10
2022-10-20T17:23:40.125Z,57.00
2022-10-20T17:26:10.965Z,51.03
2022-10-20T17:28:37.380Z,55.25
2022-10-20T17:31:07.662Z,54.45
2022-10-20T17:33:34.100Z,53.20
2022-10-20T17:36:01.139Z,55.20
2022-10-20T17:38:28.304Z,57.17
2022-10-20T17:40:57.593Z,49.08
2022-10-20T17:43:23.879Z,53.38
2022-10-20T17:45:57.471Z,52.40
2022-10-20T17:48:23.947Z,63.15
2022-10-20T17:50:58.384Z,62.97
2022-10-20T17:53:24.708Z,59.33
2022-10-20T17:55:52.034Z,54.33
2022-10-20T17:58:18.310Z,50.83
2022-10-20T18:00:56.212Z,58.35
2022-10-20T18:03:23.103Z,56.03
2022-10-20T18:05:49.461Z,59.15
2022-10-20T18:08:15.782Z,54.75
2022-10-20T18:10:43.749Z,60.95
2022-10-20T18:13:10.428Z,55.50
2022-10-20T18:15:41.088Z,60.25
2022-10-20T18:18:07.336Z,65.75
2022-10-20T18:20:34.361Z,68.50
2022-10-20T18:23:00.777Z,63.38
2022-10-20T18:25:27.039Z,66.88
2022-10-20T18:27:53.308Z,72.35
2022-10-20T18:30:19.635Z,62.38
2022-10-20T18:32:46.011Z,58.63
2022-10-20T18:35:12.308Z,59.58
2022-10-20T18:37:38.964Z,56.85
2022-10-20T18:40:06.015Z,63.22
2022-10-20T18:42:33.065Z,58.38
2022-10-20T18:44:59.999Z,67.22
2022-10-20T18:47:26.245Z,65.18
2022-10-20T18:49:52.508Z,61.45
2022-10-20T18:52:18.777Z,65.90
2022-10-20T18:54:45.225Z,57.65
2022-10-20T18:57:11.522Z,58.20
2022-10-20T18:59:37.837Z,61.35
2022-10-20T19:02:04.092Z,54.45
2022-10-20T19:04:30.350Z,64.95
2022-10-20T19:06:56.663Z,60.15
2022-10-20T19:09:22.998Z,68.80
2022-10-20T19:14:17.371Z,74.85
2022-10-20T19:16:45.974Z,70.85
2022-10-20T19:19:12.343Z,67.40
2022-10-20T19:21:38.973Z,64.95
2022-10-20T19:24:11.466Z,65.70
2022-10-20T19:26:39.173Z,63.60
2022-10-20T19:29:07.253Z,66.90
2022-10-20T19:31:35.570Z,64.78
2022-10-20T19:34:04.164Z,64.68
2022-10-20T19:36:30.450Z,61.00
2022-10-20T19:38:56.729Z,74.18
2022-10-20T19:41:23.049Z,63.67
2022-10-20T19:43:49.709Z,74.28
2022-10-20T19:46:16.777Z,71.00
2022-10-20T19:48:44.261Z,72.07
2022-10-20T19:51:10.688Z,69.95
2022-10-20T19:53:37.564Z,71.95
2022-10-20T19:56:04.516Z,64.13
2022-10-20T19:58:30.789Z,68.82
2022-10-20T20:00:57.882Z,62.47
2022-10-20T20:03:24.412Z,62.55
2022-10-20T20:05:57.999Z,68.32
2022-10-20T20:08:24.306Z,63.63
2022-10-20T20:10:51.396Z,64.45
2022-10-20T20:13:17.676Z,65.18
2022-10-20T20:15:43.947Z,72.90
2022-10-20T20:18:12.000Z,65.85
2022-10-20T20:20:42.511Z,64.80
2022-10-20T20:23:08.913Z,65.15
2022-10-20T20:25:42.730Z,62.20
2022-10-20T20:28:09.554Z,57.63
2022-10-20T20:30:37.109Z,65.30
2022-10-20T20:33:04.617Z,61.15
2022-10-20T20:35:32.006Z,66.95
2022-10-20T20:37:58.334Z,64.75
2022-10-20T20:40:24.579Z,62.65
2022-10-20T20:42:50.874Z,80.45
2022-10-20T20:45:17.262Z,64.47
2022-10-20T20:47:46.541Z,68.93
2022-10-20T20:50:12.803Z,72.88
2022-10-20T20:52:39.177Z,63.85
2022-10-20T20:55:05.515Z,71.70
2022-10-20T20:57:31.821Z,67.65
2022-10-20T20:59:58.085Z,66.10
2022-10-20T21:02:24.358Z,73.20
2022-10-20T21:04:50.630Z,63.38
2022-10-20T21:07:16.891Z,63.72
2022-10-20T21:09:43.181Z,62.92
2022-10-20T21:12:09.460Z,63.40
2022-10-20T21:14:35.754Z,63.25
2022-10-20T21:17:02.049Z,65.00
2022-10-20T21:19:29.223Z,63.72
2022-10-20T21:21:57.918Z,66.40
2022-10-20T21:24:24.972Z,68.43
2022-10-20T21:26:51.445Z,66.20
2022-10-20T21:29:17.753Z,60.08
2022-10-20T21:31:44.025Z,56.17
2022-10-20T21:34:10.577Z,67.55
2022-10-20T21:36:37.767Z,65.30
2022-10-20T21:39:04.949Z,63.45
2022-10-20T21:41:32.917Z,62.97
2022-10-20T21:43:59.968Z,62.30
2022-10-20T21:46:27.885Z,61.92
2022-10-20T21:48:55.113Z,67.25
2022-10-20T21:51:22.708Z,62.10
2022-10-20T21:53:49.100Z,63.47
2022-10-20T21:56:15.976Z,62.42
2022-10-20T21:58:42.291Z,60.60
2022-10-20T22:01:12.779Z,69.88
2022-10-20T22:03:39.685Z,67.43
2022-10-20T22:06:06.629Z,76.63
2022-10-20T22:08:37.829Z,64.72
2022-10-20T22:11:05.532Z,66.00
2022-10-20T22:13:31.832Z,64.78
2022-10-20T22:15:58.350Z,59.88
2022-10-20T22:18:24.628Z,63.60
2022-10-20T22:20:50.906Z,65.10
2022-10-20T22:23:17.209Z,64.75
2022-10-20T22:25:43.599Z,55.72
2022-10-20T22:28:09.969Z,61.53
2022-10-20T22:30:36.265Z,66.20
2022-10-20T22:33:02.764Z,64.93
2022-10-20T22:35:29.041Z,60.70
2022-10-20T22:37:55.312Z,58.67
2022-10-20T22:40:21.568Z,54.88
2022-10-20T22:42:47.856Z,58.97
2022-10-20T22:45:14.263Z,58.95
2022-10-20T22:47:40.520Z,63.17
2022-10-20T22:50:07.128Z,59.97
2022-10-20T22:52:33.433Z,58.70
2022-10-20T22:54:59.744Z,63.95
2022-10-20T22:57:25.992Z,62.78
2022-10-20T22:59:52.313Z,59.97
2022-10-20T23:02:18.581Z,60.00
2022-10-20T23:04:44.889Z,59.33
2022-10-20T23:07:11.300Z,56.78
2022-10-20T23:09:37.576Z,58.70
2022-10-20T23:12:03.966Z,55.58
2022-10-20T23:14:30.364Z,53.95
2022-10-20T23:16:56.660Z,55.03
2022-10-20T23:19:22.928Z,54.45
2022-10-20T23:21:52.347Z,55.83
2022-10-20T23:24:18.699Z,61.92
2022-10-20T23:26:44.938Z,58.17
2022-10-20T23:29:11.234Z,57.67
2022-10-20T23:31:37.493Z,60.10
2022-10-20T23:34:03.750Z,58.47
2022-10-20T23:36:30.024Z,58.85
2022-10-20T23:38:56.325Z,56.13
2022-10-20T23:41:22.817Z,58.33
2022-10-20T23:43:49.154Z,75.65
2022-10-20T23:46:15.498Z,55.58
2022-10-20T23:48:41.789Z,63.05
2022-10-20T23:51:08.048Z,65.78
2022-10-20T23:53:34.828Z,67.63
2022-10-20T23:56:01.109Z,78.93
2022-10-20T23:58:27.386Z,65.85
